createdAt,value
2022-08-08T00:02:03.182Z,14.68
2022-08-08T00:04:38.227Z,14.62
2022-08-08T00:07:22.908Z,14.58
2022-08-08T00:10:07.203Z,14.58
2022-08-08T00:12:48.390Z,14.58
2022-08-08T00:15:56.413Z,14.51
2022-08-08T00:18:22.021Z,14.46
2022-08-08T00:20:53.883Z,14.46
2022-08-08T00:23:43.069Z,14.46
2022-08-08T00:26:21.653Z,14.44
2022-08-08T00:28:55.449Z,14.39
2022-08-08T00:32:20.527Z,14.42
2022-08-08T00:34:57.572Z,14.38
2022-08-08T00:37:47.538Z,14.34
2022-08-08T00:41:07.589Z,14.31
2022-08-08T00:44:00.811Z,14.32
2022-08-08T00:47:04.482Z,14.29
2022-08-08T00:50:09.301Z,14.25
2022-08-08T00:52:54.139Z,14.23
2022-08-08T00:55:53.061Z,14.21
2022-08-08T00:58:54.499Z,14.23
2022-08-08T01:01:39.018Z,14.21
2022-08-08T01:04:29.830Z,14.20
2022-08-08T01:07:55.853Z,14.18
2022-08-08T01:11:13.578Z,14.18
2022-08-08T01:14:16.535Z,14.17
2022-08-08T01:17:51.524Z,14.12
2022-08-08T01:20:44.211Z,14.09
2022-08-08T01:24:05.603Z,14.07
2022-08-08T01:27:10.869Z,14.03
2022-08-08T01:30:23.062Z,14.05
2022-08-08T01:33:43.243Z,14.02
2022-08-08T01:36:55.680Z,13.98
2022-08-08T01:39:36.041Z,13.96
2022-08-08T01:42:17.767Z,13.95
2022-08-08T01:45:04.067Z,13.92
2022-08-08T01:48:14.380Z,13.91
2022-08-08T01:50:59.057Z,13.83
2022-08-08T01:55:16.386Z,13.82
2022-08-08T01:56:46.937Z,13.74
2022-08-08T02:00:02.948Z,13.71
2022-08-08T02:02:41.461Z,13.64
2022-08-08T02:05:33.901Z,13.64
2022-08-08T02:08:23.151Z,13.59
2022-08-08T02:11:22.991Z,13.56
2022-08-08T02:13:58.551Z,13.53
2022-08-08T02:16:35.705Z,13.50
2022-08-08T02:19:41.434Z,13.49
2022-08-08T02:22:27.961Z,13.49
2022-08-08T02:25:11.783Z,13.45
2022-08-08T02:27:55.980Z,13.39
2022-08-08T02:30:35.991Z,13.42
2022-08-08T02:33:15.424Z,13.42
2022-08-08T02:36:16.509Z,13.39
2022-08-08T02:38:56.117Z,13.39
2022-08-08T02:42:05.746Z,13.39
2022-08-08T02:45:21.338Z,13.30
2022-08-08T02:48:25.726Z,13.25
2022-08-08T02:51:46.327Z,13.23
2022-08-08T02:54:45.903Z,13.23
2022-08-08T02:57:52.283Z,13.22
2022-08-08T03:00:33.487Z,13.21
2022-08-08T03:05:00.298Z,13.17
2022-08-08T03:07:19.637Z,13.17
2022-08-08T03:10:44.786Z,13.15
2022-08-08T03:16:02.228Z,13.13
2022-08-08T03:16:48.958Z,13.15
2022-08-08T03:19:51.920Z,13.18
2022-08-08T03:22:38.712Z,13.15
2022-08-08T03:25:17.786Z,13.14
2022-08-08T03:27:56.355Z,13.14
2022-08-08T03:30:25.965Z,13.17
2022-08-08T03:33:54.700Z,13.15
2022-08-08T03:36:00.769Z,13.16
2022-08-08T03:38:54.276Z,13.17
2022-08-08T03:42:12.493Z,13.15
2022-08-08T03:44:07.410Z,13.18
2022-08-08T03:46:47.158Z,13.24
2022-08-08T03:49:59.091Z,13.22
2022-08-08T03:52:13.175Z,13.25
2022-08-08T03:55:02.035Z,13.33
2022-08-08T03:58:32.274Z,13.34
2022-08-08T04:00:25.987Z,13.40
2022-08-08T04:03:00.525Z,13.58
2022-08-08T04:05:30.305Z,13.87
2022-08-08T04:08:00.727Z,13.67
2022-08-08T04:10:31.921Z,13.94
2022-08-08T04:13:03.730Z,13.70
2022-08-08T04:16:03.576Z,13.68
2022-08-08T04:18:38.219Z,13.71
2022-08-08T04:21:11.102Z,13.76
2022-08-08T04:24:05.756Z,13.81
2022-08-08T04:26:35.531Z,13.92
2022-08-08T04:29:15.029Z,13.99
2022-08-08T04:31:58.771Z,14.04
2022-08-08T04:34:32.370Z,14.05
2022-08-08T04:37:12.161Z,14.08
2022-08-08T04:40:03.905Z,14.14
2022-08-08T04:42:31.675Z,14.17
2022-08-08T04:45:02.279Z,14.24
2022-08-08T04:47:30.850Z,14.25
2022-08-08T04:50:04.780Z,14.25
2022-08-08T04:52:33.990Z,14.27
2022-08-08T04:55:04.369Z,14.30
2022-08-08T04:57:34.639Z,14.32
2022-08-08T05:00:06.851Z,14.34
2022-08-08T05:02:35.234Z,14.34
2022-08-08T05:05:03.452Z,14.38
2022-08-08T05:07:35.294Z,14.39
2022-08-08T05:10:12.832Z,14.43
2022-08-08T05:12:42.982Z,14.47
2022-08-08T05:16:36.415Z,14.50
2022-08-08T05:18:19.214Z,14.54
2022-08-08T05:20:52.259Z,14.59
2022-08-08T05:23:21.626Z,14.63
2022-08-08T05:25:50.070Z,14.70
2022-08-08T05:28:48.448Z,14.74
2022-08-08T05:31:19.180Z,14.80
2022-08-08T05:33:55.423Z,14.86
2022-08-08T05:36:28.225Z,14.91
2022-08-08T05:38:59.580Z,14.90
2022-08-08T05:41:28.013Z,15.01
2022-08-08T05:44:04.856Z,15.08
2022-08-08T05:46:36.514Z,15.13
2022-08-08T05:49:11.131Z,15.20
2022-08-08T05:51:49.194Z,15.29
2022-08-08T05:54:28.850Z,15.36
2022-08-08T05:57:15.389Z,15.42
2022-08-08T05:59:59.937Z,15.49
2022-08-08T06:02:54.951Z,15.58
2022-08-08T06:05:34.197Z,15.68
2022-08-08T06:08:20.468Z,15.83
2022-08-08T06:10:54.578Z,15.89
2022-08-08T06:13:23.510Z,16.01
2022-08-08T06:15:56.140Z,16.06
2022-08-08T06:18:27.320Z,16.24
2022-08-08T06:20:57.753Z,16.48
2022-08-08T06:23:52.480Z,16.52
2022-08-08T06:26:43.270Z,16.62
2022-08-08T06:29:18.681Z,16.88
2022-08-08T06:32:10.299Z,17.23
2022-08-08T06:34:56.394Z,17.28
2022-08-08T06:37:40.263Z,17.44
2022-08-08T06:40:15.912Z,17.51
2022-08-08T06:42:56.348Z,17.60
2022-08-08T06:45:25.320Z,17.75
2022-08-08T06:48:01.031Z,18.04
2022-08-08T06:50:33.565Z,18.01
2022-08-08T06:53:10.035Z,18.13
2022-08-08T06:55:43.185Z,18.30
2022-08-08T06:58:14.222Z,18.40
2022-08-08T07:00:47.955Z,18.56
2022-08-08T07:04:35.969Z,18.62
2022-08-08T07:06:26.903Z,18.92
2022-08-08T07:08:58.875Z,19.02
2022-08-08T07:11:45.958Z,19.02
2022-08-08T07:14:19.248Z,19.19
2022-08-08T07:16:54.307Z,19.23
2022-08-08T07:19:31.724Z,19.25
2022-08-08T07:22:18.423Z,19.36
2022-08-08T07:24:53.272Z,19.38
2022-08-08T07:27:27.908Z,19.43
2022-08-08T07:30:08.311Z,19.53
2022-08-08T07:32:42.176Z,19.51
2022-08-08T07:35:11.208Z,19.59
2022-08-08T07:37:55.749Z,19.66
2022-08-08T07:40:34.396Z,19.74
2022-08-08T07:43:08.621Z,19.78
2022-08-08T07:46:04.777Z,19.76
2022-08-08T07:48:29.625Z,19.83
2022-08-08T07:51:01.171Z,19.92
2022-08-08T07:54:01.486Z,19.86
2022-08-08T07:56:36.925Z,19.91
2022-08-08T07:59:11.267Z,20.00
2022-08-08T08:02:36.761Z,19.95
2022-08-08T08:04:40.005Z,19.90
2022-08-08T08:07:11.015Z,19.92
2022-08-08T08:09:42.524Z,19.94
2022-08-08T08:12:31.382Z,19.86
2022-08-08T08:15:05.345Z,19.88
2022-08-08T08:17:44.138Z,19.84
2022-08-08T08:20:19.046Z,19.83
2022-08-08T08:22:47.641Z,19.91
2022-08-08T08:25:19.381Z,19.99
2022-08-08T08:28:05.372Z,20.03
2022-08-08T08:30:39.059Z,20.02
2022-08-08T08:33:11.210Z,20.03
2022-08-08T08:36:19.627Z,20.01
2022-08-08T08:38:28.213Z,20.01
2022-08-08T08:40:58.360Z,20.00
2022-08-08T08:43:29.098Z,20.00
2022-08-08T08:45:57.972Z,20.05
2022-08-08T08:48:32.434Z,20.13
2022-08-08T08:51:03.263Z,20.16
2022-08-08T08:53:58.917Z,20.14
2022-08-08T08:56:28.458Z,20.22
2022-08-08T08:58:58.350Z,20.16
2022-08-08T09:01:34.328Z,20.17
2022-08-08T09:04:09.986Z,20.21
2022-08-08T09:06:49.980Z,20.24
2022-08-08T09:09:37.520Z,20.18
2022-08-08T09:12:11.472Z,20.13
2022-08-08T09:14:45.007Z,20.16
2022-08-08T09:17:18.933Z,20.15
2022-08-08T09:22:02.628Z,20.19
2022-08-08T09:22:39.490Z,20.20
2022-08-08T09:25:09.709Z,20.15
2022-08-08T09:27:56.410Z,20.20
2022-08-08T09:30:28.230Z,20.16
2022-08-08T09:33:54.180Z,20.08
2022-08-08T09:35:48.962Z,20.21
2022-08-08T09:38:32.025Z,20.22
2022-08-08T09:41:06.386Z,20.16
2022-08-08T09:44:06.217Z,20.17
2022-08-08T09:46:35.942Z,20.21
2022-08-08T09:49:41.419Z,20.24
2022-08-08T09:52:06.261Z,20.27
2022-08-08T09:54:42.149Z,20.25
2022-08-08T09:57:17.503Z,20.26
2022-08-08T10:00:27.583Z,20.25
2022-08-08T10:02:42.018Z,20.30
2022-08-08T10:05:25.296Z,20.35
2022-08-08T10:08:00.329Z,20.36
2022-08-08T10:10:31.675Z,20.42
2022-08-08T10:13:13.826Z,20.53
2022-08-08T10:16:00.585Z,20.64
2022-08-08T10:18:30.975Z,20.68
2022-08-08T10:21:22.867Z,20.75
2022-08-08T10:23:55.551Z,20.83
2022-08-08T10:26:51.971Z,20.91
2022-08-08T10:29:23.594Z,20.93
2022-08-08T10:32:15.930Z,20.90
2022-08-08T10:34:58.466Z,21.02
2022-08-08T10:37:31.803Z,21.07
2022-08-08T10:40:16.561Z,21.12
2022-08-08T10:42:46.454Z,21.18
2022-08-08T10:45:16.472Z,21.17
2022-08-08T10:47:55.382Z,21.17
2022-08-08T10:50:33.116Z,21.18
2022-08-08T10:53:07.582Z,21.12
2022-08-08T10:55:46.425Z,21.14
2022-08-08T10:58:16.010Z,21.13
2022-08-08T11:00:53.365Z,21.17
2022-08-08T11:04:00.321Z,21.12
2022-08-08T11:06:31.543Z,21.15
2022-08-08T11:09:09.616Z,21.20
2022-08-08T11:12:04.946Z,21.17
2022-08-08T11:14:27.701Z,21.28
2022-08-08T11:16:55.976Z,21.28
2022-08-08T11:19:30.214Z,21.27
2022-08-08T11:22:00.319Z,21.28
2022-08-08T11:24:36.020Z,21.37
2022-08-08T11:27:19.303Z,21.35
2022-08-08T11:29:58.359Z,21.41
2022-08-08T11:32:39.815Z,21.44
2022-08-08T11:35:27.868Z,21.46
2022-08-08T11:38:35.979Z,21.47
2022-08-08T11:40:52.699Z,21.32
2022-08-08T11:43:24.444Z,21.17
2022-08-08T11:46:09.510Z,21.05
2022-08-08T11:48:44.848Z,21.00
2022-08-08T11:51:29.993Z,20.96
2022-08-08T11:54:04.288Z,20.98
2022-08-08T11:56:35.030Z,21.08
2022-08-08T11:59:10.819Z,21.16
2022-08-08T12:01:39.715Z,21.26
2022-08-08T12:04:09.903Z,21.37
2022-08-08T12:06:42.859Z,21.38
2022-08-08T12:09:17.378Z,21.45
2022-08-08T12:11:49.602Z,21.44
2022-08-08T12:14:23.983Z,21.48
2022-08-08T12:16:57.690Z,21.65
2022-08-08T12:19:37.995Z,21.69
2022-08-08T12:22:21.096Z,21.68
2022-08-08T12:24:51.257Z,21.72
2022-08-08T12:27:22.354Z,21.75
2022-08-08T12:29:57.578Z,21.76
2022-08-08T12:32:25.676Z,21.76
2022-08-08T12:35:13.394Z,21.90
2022-08-08T12:38:02.255Z,21.87
2022-08-08T12:40:54.399Z,21.88
2022-08-08T12:43:47.511Z,21.91
2022-08-08T12:46:26.429Z,22.01
2022-08-08T12:49:22.149Z,22.07
2022-08-08T12:51:49.971Z,22.14
2022-08-08T12:54:29.206Z,22.16
2022-08-08T12:56:57.403Z,22.22
2022-08-08T12:59:45.021Z,22.20
2022-08-08T13:02:28.628Z,22.13
2022-08-08T13:04:59.437Z,22.22
2022-08-08T13:08:03.487Z,22.19
2022-08-08T13:10:36.269Z,22.22
2022-08-08T13:13:08.031Z,22.36
2022-08-08T13:15:37.474Z,22.40
2022-08-08T13:18:11.715Z,22.46
2022-08-08T13:20:48.217Z,22.46
2022-08-08T13:23:36.524Z,22.41
2022-08-08T13:26:14.649Z,22.31
2022-08-08T13:28:45.959Z,22.28
2022-08-08T13:31:17.563Z,22.25
2022-08-08T13:33:50.161Z,22.21
2022-08-08T13:36:26.035Z,22.19
2022-08-08T13:38:54.843Z,22.18
2022-08-08T13:41:37.786Z,22.15
2022-08-08T13:44:11.068Z,22.15
2022-08-08T13:46:39.473Z,22.16
2022-08-08T13:50:34.978Z,22.18
2022-08-08T13:52:08.134Z,22.28
2022-08-08T13:54:38.478Z,22.40
2022-08-08T13:57:15.568Z,22.48
2022-08-08T13:59:48.527Z,22.56
2022-08-08T14:02:22.403Z,22.60
2022-08-08T14:05:09.191Z,22.65
2022-08-08T14:07:52.201Z,22.66
2022-08-08T14:10:33.091Z,22.68
2022-08-08T14:13:30.686Z,22.71
2022-08-08T14:16:03.395Z,22.66
2022-08-08T14:18:35.867Z,22.68
2022-08-08T14:21:07.881Z,22.70
2022-08-08T14:24:06.984Z,22.71
2022-08-08T14:26:29.984Z,22.61
2022-08-08T14:29:06.065Z,22.62
2022-08-08T14:32:09.965Z,22.60
2022-08-08T14:34:37.519Z,22.57
2022-08-08T14:37:08.317Z,22.58
2022-08-08T14:39:47.916Z,22.51
2022-08-08T14:42:17.213Z,22.45
2022-08-08T14:44:57.403Z,22.51
2022-08-08T14:47:36.137Z,22.50
2022-08-08T14:50:16.134Z,22.46
2022-08-08T14:52:58.056Z,22.50
2022-08-08T14:55:41.093Z,22.46
2022-08-08T14:58:16.039Z,22.48
2022-08-08T15:00:47.856Z,22.49
2022-08-08T15:03:17.501Z,22.40
2022-08-08T15:05:52.346Z,22.38
2022-08-08T15:08:34.807Z,22.40
2022-08-08T15:11:09.045Z,22.37
2022-08-08T15:13:41.066Z,22.34
2022-08-08T15:16:27.841Z,22.31
2022-08-08T15:18:56.033Z,22.24
2022-08-08T15:21:27.640Z,22.21
2022-08-08T15:23:58.174Z,22.10
2022-08-08T15:26:29.294Z,21.97
2022-08-08T15:28:57.766Z,21.86
2022-08-08T15:32:03.212Z,21.88
2022-08-08T15:34:29.003Z,21.82
2022-08-08T15:37:02.262Z,21.85
2022-08-08T15:39:38.523Z,21.90
2022-08-08T15:42:13.286Z,21.96
2022-08-08T15:44:46.494Z,21.97
2022-08-08T15:47:19.122Z,21.97
2022-08-08T15:49:48.631Z,21.99
2022-08-08T15:52:18.044Z,22.01
2022-08-08T15:54:51.857Z,21.99
2022-08-08T15:57:21.258Z,21.98
2022-08-08T16:00:05.426Z,22.00
2022-08-08T16:02:50.577Z,21.99
2022-08-08T16:05:21.549Z,22.02
2022-08-08T16:07:53.855Z,22.02
2022-08-08T16:13:10.007Z,22.01
2022-08-08T16:13:30.357Z,22.03
2022-08-08T16:16:08.967Z,22.04
2022-08-08T16:18:41.674Z,22.04
2022-08-08T16:21:26.022Z,22.03
2022-08-08T16:23:55.557Z,22.08
2022-08-08T16:26:32.742Z,21.98
2022-08-08T16:29:02.204Z,21.88
2022-08-08T16:31:31.408Z,21.74
2022-08-08T16:34:01.587Z,21.63
2022-08-08T16:36:33.425Z,21.56
2022-08-08T16:39:09.970Z,21.49
2022-08-08T16:41:51.253Z,21.42
2022-08-08T16:44:28.135Z,21.36
2022-08-08T16:47:16.725Z,21.31
2022-08-08T16:49:47.846Z,21.29
2022-08-08T16:55:03.012Z,21.26
2022-08-08T16:55:25.054Z,21.22
2022-08-08T16:58:14.659Z,21.21
2022-08-08T17:00:48.739Z,21.21
2022-08-08T17:03:25.463Z,21.23
2022-08-08T17:06:39.716Z,21.22
2022-08-08T17:08:57.481Z,21.23
2022-08-08T17:11:28.421Z,21.23
2022-08-08T17:14:18.866Z,21.23
2022-08-08T17:16:51.747Z,21.20
2022-08-08T17:19:25.867Z,21.20
2022-08-08T17:21:56.064Z,21.23
2022-08-08T17:24:27.839Z,21.21
2022-08-08T17:26:58.679Z,21.19
2022-08-08T17:29:27.153Z,21.17
2022-08-08T17:31:55.111Z,21.15
2022-08-08T17:34:54.038Z,21.13
2022-08-08T17:37:15.385Z,21.14
2022-08-08T17:40:06.003Z,21.11
2022-08-08T17:42:35.488Z,21.03
2022-08-08T17:45:03.954Z,21.02
2022-08-08T17:47:40.321Z,20.98
2022-08-08T17:50:10.098Z,20.95
2022-08-08T17:52:43.230Z,20.91
2022-08-08T17:56:05.792Z,20.87
2022-08-08T17:57:59.783Z,20.80
2022-08-08T18:00:31.827Z,20.74
2022-08-08T18:03:07.405Z,20.72
2022-08-08T18:05:49.864Z,20.68
2022-08-08T18:08:25.077Z,20.63
2022-08-08T18:11:07.842Z,20.57
2022-08-08T18:15:48.635Z,20.41
2022-08-08T18:18:31.642Z,20.36
2022-08-08T18:21:10.366Z,20.31
2022-08-08T18:23:38.954Z,20.19
2022-08-08T18:26:08.042Z,20.19
2022-08-08T18:28:55.039Z,20.20
2022-08-08T18:31:25.051Z,20.15
2022-08-08T18:34:26.084Z,20.10
2022-08-08T18:36:44.458Z,20.08
2022-08-08T18:39:16.389Z,20.07
2022-08-08T18:41:58.257Z,20.03
2022-08-08T18:44:29.322Z,19.98
2022-08-08T18:47:02.670Z,19.94
2022-08-08T18:49:32.555Z,19.87
2022-08-08T18:52:18.125Z,19.79
2022-08-08T18:55:00.559Z,19.72
2022-08-08T18:57:41.480Z,19.65
2022-08-08T19:00:16.922Z,19.56
2022-08-08T19:02:55.428Z,19.45
2022-08-08T19:05:30.715Z,19.37
2022-08-08T19:08:04.177Z,19.35
2022-08-08T19:10:32.200Z,19.30
2022-08-08T19:13:03.120Z,19.24
2022-08-08T19:15:34.139Z,19.17
2022-08-08T19:18:32.158Z,19.07
2022-08-08T19:20:59.148Z,18.97
2022-08-08T19:23:27.607Z,18.89
2022-08-08T19:26:28.401Z,18.81
2022-08-08T19:28:44.563Z,18.74
2022-08-08T19:31:13.093Z,18.69
2022-08-08T19:34:04.083Z,18.60
2022-08-08T19:36:35.263Z,18.48
2022-08-08T19:39:03.209Z,18.40
2022-08-08T19:41:33.977Z,18.33
2022-08-08T19:44:12.620Z,18.23
2022-08-08T19:46:41.281Z,18.11
2022-08-08T19:49:10.614Z,18.02
2022-08-08T19:51:39.613Z,17.97
2022-08-08T19:54:11.461Z,17.92
2022-08-08T19:56:41.516Z,17.85
2022-08-08T19:59:18.803Z,17.71
2022-08-08T20:02:03.527Z,17.58
2022-08-08T20:04:35.022Z,17.47
2022-08-08T20:07:05.423Z,17.40
2022-08-08T20:09:56.641Z,17.29
2022-08-08T20:12:32.841Z,17.23
2022-08-08T20:15:10.389Z,17.13
2022-08-08T20:17:43.174Z,17.05
2022-08-08T20:20:19.212Z,16.99
2022-08-08T20:22:54.226Z,16.92
2022-08-08T20:25:26.570Z,16.79
2022-08-08T20:28:01.019Z,16.73
2022-08-08T20:30:52.542Z,16.63
2022-08-08T20:35:56.784Z,16.46
2022-08-08T20:38:29.135Z,16.40
2022-08-08T20:41:05.591Z,16.28
2022-08-08T20:43:43.732Z,16.25
2022-08-08T20:46:16.539Z,16.21
2022-08-08T20:48:45.376Z,16.18
2022-08-08T20:51:14.994Z,16.12
2022-08-08T20:53:59.262Z,16.06
2022-08-08T20:56:35.723Z,15.98
2022-08-08T20:59:08.829Z,15.95
2022-08-08T21:02:05.617Z,15.88
2022-08-08T21:04:27.566Z,15.83
2022-08-08T21:07:00.285Z,15.79
2022-08-08T21:09:31.713Z,15.73
2022-08-08T21:12:16.528Z,15.73
2022-08-08T21:14:49.230Z,15.72
2022-08-08T21:17:17.323Z,15.66
2022-08-08T21:19:47.549Z,15.62
2022-08-08T21:22:16.872Z,15.55
2022-08-08T21:24:53.526Z,15.50
2022-08-08T21:28:05.588Z,15.45
2022-08-08T21:30:19.431Z,15.38
2022-08-08T21:32:53.197Z,15.36
2022-08-08T21:36:16.874Z,15.30
2022-08-08T21:38:16.987Z,15.27
2022-08-08T21:40:56.315Z,15.26
2022-08-08T21:43:25.793Z,15.25
2022-08-08T21:48:04.360Z,15.20
2022-08-08T21:48:51.817Z,15.19
2022-08-08T21:54:31.568Z,15.06
2022-08-08T21:54:35.079Z,15.14
2022-08-08T21:57:00.199Z,15.01
2022-08-08T22:00:01.396Z,14.92
2022-08-08T22:02:19.450Z,14.90
2022-08-08T22:04:51.096Z,14.88
2022-08-08T22:07:19.521Z,14.82
2022-08-08T22:09:49.627Z,14.80
2022-08-08T22:12:17.552Z,14.73
2022-08-08T22:14:47.308Z,14.65
2022-08-08T22:17:19.130Z,14.54
2022-08-08T22:20:10.515Z,14.47
2022-08-08T22:22:36.115Z,14.40
2022-08-08T22:25:12.485Z,14.37
2022-08-08T22:28:03.657Z,14.34
2022-08-08T22:30:42.258Z,14.30
2022-08-08T22:34:10.933Z,14.25
2022-08-08T22:36:04.365Z,14.19
2022-08-08T22:38:48.899Z,14.12
2022-08-08T22:41:21.056Z,14.10
2022-08-08T22:44:01.202Z,14.08
2022-08-08T22:46:33.042Z,14.01
2022-08-08T22:49:01.185Z,13.96
2022-08-08T22:51:35.056Z,13.94
2022-08-08T22:54:30.569Z,13.88
2022-08-08T22:57:11.474Z,13.82
2022-08-08T22:59:48.553Z,13.79
2022-08-08T23:02:28.811Z,13.75
2022-08-08T23:04:57.640Z,13.72
2022-08-08T23:07:49.251Z,13.71
2022-08-08T23:10:19.525Z,13.62
2022-08-08T23:12:51.827Z,13.63
2022-08-08T23:16:37.611Z,13.67
2022-08-08T23:18:11.832Z,13.61
2022-08-08T23:20:40.944Z,13.59
2022-08-08T23:23:12.176Z,13.53
2022-08-08T23:25:48.576Z,13.51
2022-08-08T23:28:20.912Z,13.49
2022-08-08T23:30:52.000Z,13.43
2022-08-08T23:33:35.744Z,13.37
2022-08-08T23:36:09.307Z,13.33
2022-08-08T23:38:44.151Z,13.32
2022-08-08T23:41:22.761Z,13.27
2022-08-08T23:43:56.647Z,13.17
2022-08-08T23:49:01.450Z,13.16
2022-08-08T23:49:14.210Z,13.12
2022-08-08T23:52:06.234Z,13.12
2022-08-08T23:54:42.399Z,13.06
2022-08-08T23:57:27.659Z,13.05
